Time;durP1;ratioP1;P1;durP2;ratioP2;P2;SDS_P1;SDS_P2;PMS_P1;PMS_P2;Temp;Humidity;BMP_temperature;BMP_pressure;BME280_temperature;BME280_humidity;BME280_pressure;Samples;Min_cycle;Max_cycle;Signal;HPM_P1;HPM_P2
2022/08/28 00:00:13;;;;;;;6.77;4.30;;;;;;;;;;5083021;28;20294;-75
2022/08/28 00:02:40;;;;;;;10.10;4.50;;;;;;;;;;5090775;28;20250;-75
2022/08/28 00:05:09;;;;;;;4.97;4.47;;;;;;;;;;5092087;28;20205;-75
2022/08/28 00:07:37;;;;;;;6.07;4.70;;;;;;;;;;5100179;28;20312;-75
2022/08/28 00:10:06;;;;;;;5.30;4.27;;;;;;;;;;5084324;28;20221;-75
2022/08/28 00:12:34;;;;;;;8.27;4.50;;;;;;;;;;5105615;28;20228;-75
2022/08/28 00:15:01;;;;;;;5.27;4.63;;;;;;;;;;5091237;28;20835;-75
2022/08/28 00:17:28;;;;;;;5.70;4.27;;;;;;;;;;5094550;28;20217;-75
2022/08/28 00:19:55;;;;;;;7.87;4.63;;;;;;;;;;5097963;28;20237;-75
2022/08/28 00:22:22;;;;;;;7.27;4.60;;;;;;;;;;5070812;28;20237;-75
2022/08/28 00:24:50;;;;;;;5.80;4.50;;;;;;;;;;5091380;28;20233;-75
2022/08/28 00:30:04;;;;;;;10.37;4.67;;;;;;;;;;5098238;28;20334;-75
2022/08/28 00:32:33;;;;;;;7.27;4.70;;;;;;;;;;5091897;28;20252;-75
2022/08/28 00:35:01;;;;;;;6.37;4.87;;;;;;;;;;5103450;28;20204;-75
2022/08/28 00:37:29;;;;;;;7.53;4.53;;;;;;;;;;5115273;28;20292;-75
2022/08/28 00:39:56;;;;;;;7.97;4.80;;;;;;;;;;5115473;28;20254;-75
2022/08/28 00:42:25;;;;;;;6.03;4.90;;;;;;;;;;5114597;28;20225;-75
2022/08/28 00:44:52;;;;;;;8.20;5.20;;;;;;;;;;5115022;28;20236;-75
2022/08/28 00:47:25;;;;;;;6.40;4.93;;;;;;;;;;5114412;28;20261;-75
2022/08/28 00:49:54;;;;;;;10.13;5.10;;;;;;;;;;5100293;28;20205;-75
2022/08/28 00:52:21;;;;;;;8.33;5.13;;;;;;;;;;5094473;28;20232;-75
2022/08/28 00:54:50;;;;;;;5.67;5.07;;;;;;;;;;5094619;28;20524;-74
2022/08/28 00:57:19;;;;;;;8.70;5.30;;;;;;;;;;5094189;28;20194;-74
2022/08/28 00:59:47;;;;;;;12.23;5.57;;;;;;;;;;5104676;28;20252;-74
2022/08/28 01:02:15;;;;;;;6.37;5.10;;;;;;;;;;5094245;28;20302;-75
2022/08/28 01:04:42;;;;;;;7.73;5.30;;;;;;;;;;5088133;28;20647;-75
2022/08/28 01:07:11;;;;;;;6.50;5.30;;;;;;;;;;5110548;28;20304;-74
2022/08/28 01:09:40;;;;;;;6.13;4.97;;;;;;;;;;5106805;28;20297;-74
2022/08/28 01:12:09;;;;;;;5.93;5.33;;;;;;;;;;5093819;28;20241;-75
2022/08/28 01:14:38;;;;;;;7.83;5.07;;;;;;;;;;5094662;28;20234;-75
2022/08/28 01:17:07;;;;;;;8.00;5.27;;;;;;;;;;5094428;28;20249;-74
2022/08/28 01:19:37;;;;;;;6.97;4.87;;;;;;;;;;5093670;28;20286;-75
2022/08/28 01:22:11;;;;;;;6.00;4.80;;;;;;;;;;5086675;28;20577;-75
2022/08/28 01:24:40;;;;;;;6.07;5.03;;;;;;;;;;5087569;28;20296;-75
2022/08/28 01:27:07;;;;;;;9.07;5.47;;;;;;;;;;5093361;28;20634;-74
2022/08/28 01:29:35;;;;;;;5.67;5.07;;;;;;;;;;5112720;28;20284;-75
2022/08/28 01:32:02;;;;;;;6.43;5.50;;;;;;;;;;5106066;28;20194;-75
2022/08/28 01:34:29;;;;;;;8.67;5.17;;;;;;;;;;5105224;28;20760;-74
2022/08/28 01:36:57;;;;;;;7.53;5.20;;;;;;;;;;5085477;28;20203;-74
2022/08/28 01:39:25;;;;;;;6.73;5.47;;;;;;;;;;5084128;28;20198;-74
2022/08/28 01:41:54;;;;;;;8.57;5.17;;;;;;;;;;5093437;28;20620;-74
2022/08/28 01:44:24;;;;;;;8.73;5.03;;;;;;;;;;5075777;28;20296;-75
2022/08/28 01:46:51;;;;;;;7.97;5.57;;;;;;;;;;5088376;28;20214;-75
2022/08/28 01:49:19;;;;;;;6.87;5.13;;;;;;;;;;5110498;28;20649;-74
2022/08/28 01:51:47;;;;;;;7.93;5.27;;;;;;;;;;5113949;28;20285;-74
2022/08/28 01:54:14;;;;;;;8.03;5.43;;;;;;;;;;5105368;28;20632;-74
2022/08/28 01:56:42;;;;;;;6.27;4.93;;;;;;;;;;5093368;28;20810;-74
2022/08/28 01:59:11;;;;;;;6.43;4.90;;;;;;;;;;5092750;28;20343;-74
2022/08/28 02:01:39;;;;;;;7.43;5.50;;;;;;;;;;5093492;28;20297;-74
2022/08/28 02:04:06;;;;;;;6.67;5.37;;;;;;;;;;5091376;28;20203;-74
2022/08/28 02:06:33;;;;;;;6.80;5.03;;;;;;;;;;5072947;28;20707;-75
2022/08/28 02:09:01;;;;;;;7.40;5.20;;;;;;;;;;5106441;28;20241;-75
2022/08/28 02:11:29;;;;;;;9.03;5.33;;;;;;;;;;5113283;28;20279;-74
2022/08/28 02:13:56;;;;;;;6.63;5.37;;;;;;;;;;5113474;28;20237;-75
2022/08/28 02:16:25;;;;;;;7.00;5.20;;;;;;;;;;5112612;28;20233;-75
2022/08/28 02:18:52;;;;;;;8.40;5.20;;;;;;;;;;5109642;28;20277;-75
2022/08/28 02:21:20;;;;;;;7.80;5.00;;;;;;;;;;5107357;28;20233;-75
2022/08/28 02:23:47;;;;;;;7.07;4.90;;;;;;;;;;5102579;28;20246;-75
2022/08/28 02:26:15;;;;;;;7.23;4.93;;;;;;;;;;5089241;28;20240;-75
2022/08/28 02:28:42;;;;;;;6.63;4.90;;;;;;;;;;5113400;28;20261;-74
2022/08/28 02:31:10;;;;;;;8.10;4.70;;;;;;;;;;5111856;28;20350;-74
2022/08/28 02:33:39;;;;;;;7.43;5.23;;;;;;;;;;5107595;28;20228;-75
2022/08/28 02:36:08;;;;;;;7.10;4.53;;;;;;;;;;5100085;28;20230;-74
2022/08/28 02:38:35;;;;;;;6.03;4.87;;;;;;;;;;5099254;28;20230;-75
2022/08/28 02:41:02;;;;;;;6.10;4.30;;;;;;;;;;5092485;28;20735;-75
2022/08/28 02:43:30;;;;;;;7.63;4.83;;;;;;;;;;5100313;28;20711;-74
2022/08/28 02:45:57;;;;;;;4.80;3.97;;;;;;;;;;5112028;28;20783;-74
2022/08/28 02:48:28;;;;;;;7.90;5.17;;;;;;;;;;5112742;28;20275;-74
2022/08/28 02:50:59;;;;;;;5.60;4.47;;;;;;;;;;5112668;28;20205;-75
2022/08/28 02:53:27;;;;;;;6.97;4.90;;;;;;;;;;5107839;28;20193;-75
2022/08/28 02:55:54;;;;;;;9.93;4.83;;;;;;;;;;5112435;28;20204;-75
2022/08/28 02:58:21;;;;;;;5.40;4.87;;;;;;;;;;5112759;28;20309;-74
2022/08/28 03:00:49;;;;;;;5.90;4.50;;;;;;;;;;5110391;28;20285;-75
2022/08/28 03:03:16;;;;;;;5.17;4.43;;;;;;;;;;5092304;28;20198;-75
2022/08/28 03:05:43;;;;;;;10.47;4.43;;;;;;;;;;5094461;28;20305;-74
2022/08/28 03:08:12;;;;;;;6.20;5.03;;;;;;;;;;5101548;28;20670;-74
2022/08/28 03:10:40;;;;;;;6.03;5.00;;;;;;;;;;5105015;28;20280;-74
2022/08/28 03:13:08;;;;;;;5.37;4.83;;;;;;;;;;5096177;28;20198;-74
2022/08/28 03:15:36;;;;;;;6.30;4.90;;;;;;;;;;5112154;28;20285;-75
2022/08/28 03:18:03;;;;;;;6.83;4.57;;;;;;;;;;5110926;28;20202;-75
2022/08/28 03:20:30;;;;;;;7.60;4.50;;;;;;;;;;5091923;28;20245;-74
2022/08/28 03:25:46;;;;;;;5.67;4.83;;;;;;;;;;5082991;28;20197;-75
2022/08/28 03:28:13;;;;;;;5.50;4.63;;;;;;;;;;5104011;28;20302;-74
2022/08/28 03:30:40;;;;;;;5.57;4.90;;;;;;;;;;5091496;28;20729;-74
2022/08/28 03:33:07;;;;;;;7.30;5.00;;;;;;;;;;5094589;28;20237;-74
2022/08/28 03:35:36;;;;;;;6.60;4.73;;;;;;;;;;5103117;28;20197;-74
2022/08/28 03:38:03;;;;;;;7.87;4.93;;;;;;;;;;5104614;28;20201;-74
2022/08/28 03:40:31;;;;;;;6.17;4.70;;;;;;;;;;5091504;28;20324;-74
2022/08/28 03:42:59;;;;;;;7.17;5.13;;;;;;;;;;5091384;28;20202;-75
2022/08/28 03:45:26;;;;;;;5.40;4.60;;;;;;;;;;5090292;28;20595;-74
2022/08/28 03:47:53;;;;;;;6.80;5.10;;;;;;;;;;5091137;28;20292;-75
2022/08/28 03:50:21;;;;;;;5.27;4.47;;;;;;;;;;5071855;28;20234;-75
2022/08/28 03:52:48;;;;;;;5.30;4.60;;;;;;;;;;5070991;28;20294;-75
2022/08/28 03:55:17;;;;;;;5.37;4.50;;;;;;;;;;5104346;28;20277;-75
2022/08/28 03:57:44;;;;;;;8.40;4.77;;;;;;;;;;5094114;28;20210;-75
2022/08/28 04:00:14;;;;;;;6.57;4.43;;;;;;;;;;5090915;28;20230;-76
2022/08/28 04:02:42;;;;;;;12.30;5.47;;;;;;;;;;5097690;28;20202;-76
2022/08/28 04:05:10;;;;;;;6.70;4.50;;;;;;;;;;5098388;28;20218;-75
2022/08/28 04:07:38;;;;;;;6.23;4.87;;;;;;;;;;5097984;28;20753;-75
2022/08/28 04:10:06;;;;;;;6.50;4.70;;;;;;;;;;5102115;28;20195;-75
2022/08/28 04:12:33;;;;;;;6.40;4.97;;;;;;;;;;5101558;28;20244;-75
2022/08/28 04:15:00;;;;;;;5.77;4.97;;;;;;;;;;5111405;28;20280;-75
2022/08/28 04:17:29;;;;;;;8.90;5.37;;;;;;;;;;5111469;28;20569;-75
2022/08/28 04:19:56;;;;;;;6.73;5.30;;;;;;;;;;5111218;28;20296;-75
2022/08/28 04:22:23;;;;;;;7.67;4.80;;;;;;;;;;5111546;28;20233;-75
2022/08/28 04:24:51;;;;;;;6.93;5.03;;;;;;;;;;5092681;28;20285;-75
2022/08/28 04:27:19;;;;;;;7.70;5.13;;;;;;;;;;5090523;28;20285;-75
2022/08/28 04:29:47;;;;;;;9.40;5.80;;;;;;;;;;5093622;28;20223;-75
2022/08/28 04:32:14;;;;;;;6.70;5.40;;;;;;;;;;5111196;28;20202;-75
2022/08/28 04:34:42;;;;;;;7.53;5.43;;;;;;;;;;5110915;28;20692;-75
2022/08/28 04:37:10;;;;;;;8.50;5.30;;;;;;;;;;5104100;28;20276;-75
2022/08/28 04:39:37;;;;;;;7.80;5.20;;;;;;;;;;5090707;28;20229;-75
2022/08/28 04:42:05;;;;;;;6.00;4.90;;;;;;;;;;5088844;28;20312;-75
2022/08/28 04:44:32;;;;;;;10.47;5.10;;;;;;;;;;5091919;28;20233;-75
2022/08/28 04:46:59;;;;;;;8.20;4.93;;;;;;;;;;5092550;28;20237;-75
2022/08/28 04:49:27;;;;;;;8.07;5.13;;;;;;;;;;5110709;28;20260;-75
2022/08/28 04:51:55;;;;;;;10.03;5.13;;;;;;;;;;5111001;28;20219;-75
2022/08/28 04:54:23;;;;;;;6.33;5.20;;;;;;;;;;5102798;28;20217;-75
2022/08/28 04:56:50;;;;;;;9.90;5.30;;;;;;;;;;5100310;28;20293;-75
2022/08/28 04:59:18;;;;;;;10.20;5.30;;;;;;;;;;5108985;28;20236;-75
2022/08/28 05:01:45;;;;;;;6.13;5.30;;;;;;;;;;5104299;28;20744;-75
2022/08/28 05:04:13;;;;;;;5.97;5.07;;;;;;;;;;5070044;28;20207;-75
2022/08/28 05:06:44;;;;;;;6.93;4.77;;;;;;;;;;5082821;28;20229;-76
2022/08/28 05:09:13;;;;;;;6.70;5.30;;;;;;;;;;5100775;28;20219;-75
2022/08/28 05:11:41;;;;;;;7.87;5.37;;;;;;;;;;5093900;28;20241;-75
2022/08/28 05:14:09;;;;;;;6.63;5.37;;;;;;;;;;5101373;28;20246;-75
2022/08/28 05:16:42;;;;;;;6.23;4.50;;;;;;;;;;5113470;28;20228;-75
2022/08/28 05:19:09;;;;;;;6.53;4.67;;;;;;;;;;5094413;28;20205;-75
2022/08/28 05:21:37;;;;;;;7.37;5.00;;;;;;;;;;5099945;28;20711;-75
2022/08/28 05:24:05;;;;;;;6.07;4.90;;;;;;;;;;5109174;28;20208;-75
2022/08/28 05:26:34;;;;;;;6.00;5.13;;;;;;;;;;5114257;28;20229;-75
2022/08/28 05:29:01;;;;;;;7.30;4.77;;;;;;;;;;5111938;28;20217;-75
2022/08/28 05:31:29;;;;;;;7.90;5.00;;;;;;;;;;5114310;28;20247;-75
2022/08/28 05:33:58;;;;;;;5.87;5.13;;;;;;;;;;5114121;28;20292;-75
2022/08/28 05:36:25;;;;;;;8.90;5.13;;;;;;;;;;5073737;28;20238;-74
2022/08/28 05:38:55;;;;;;;7.33;5.70;;;;;;;;;;5073540;28;20246;-75
2022/08/28 05:41:24;;;;;;;6.57;5.23;;;;;;;;;;5073308;28;20277;-75
2022/08/28 05:43:53;;;;;;;5.67;5.00;;;;;;;;;;5072112;28;20199;-75
2022/08/28 05:46:21;;;;;;;8.60;5.37;;;;;;;;;;5106400;28;20234;-75
2022/08/28 05:48:48;;;;;;;6.10;5.50;;;;;;;;;;5096470;28;20691;-75
2022/08/28 05:51:17;;;;;;;7.47;5.40;;;;;;;;;;5094887;28;20201;-75
2022/08/28 05:53:44;;;;;;;7.30;4.90;;;;;;;;;;5099205;28;20237;-75
2022/08/28 05:56:13;;;;;;;6.83;5.00;;;;;;;;;;5114107;28;20233;-75
2022/08/28 05:58:40;;;;;;;7.67;4.90;;;;;;;;;;5113913;27;20224;-75
2022/08/28 06:01:10;;;;;;;6.53;4.40;;;;;;;;;;5099028;28;20285;-75
2022/08/28 06:03:38;;;;;;;7.10;3.87;;;;;;;;;;5104621;28;20284;-75
2022/08/28 06:06:06;;;;;;;4.47;4.00;;;;;;;;;;5097447;28;20230;-75
2022/08/28 06:08:33;;;;;;;4.90;3.97;;;;;;;;;;5099427;28;20293;-75
2022/08/28 06:11:01;;;;;;;5.37;3.90;;;;;;;;;;5092895;28;20273;-75
2022/08/28 06:13:29;;;;;;;7.30;3.40;;;;;;;;;;5093253;28;20209;-75
2022/08/28 06:15:56;;;;;;;5.50;3.67;;;;;;;;;;5092733;28;20209;-75
2022/08/28 06:18:25;;;;;;;7.50;3.53;;;;;;;;;;5093113;28;20194;-75
2022/08/28 06:20:53;;;;;;;8.63;3.50;;;;;;;;;;5103030;28;20284;-75
2022/08/28 06:23:21;;;;;;;5.53;3.47;;;;;;;;;;5110511;28;20225;-76
2022/08/28 06:25:50;;;;;;;4.40;3.10;;;;;;;;;;5110955;28;20233;-76
2022/08/28 06:28:19;;;;;;;6.75;3.25;;;;;;;;;;5099960;28;20308;-75
2022/08/28 06:30:46;;;;;;;5.88;3.08;;;;;;;;;;5112913;28;20289;-75
2022/08/28 06:33:15;;;;;;;3.75;2.60;;;;;;;;;;5099637;28;20294;-76
2022/08/28 06:35:44;;;;;;;3.33;2.85;;;;;;;;;;5106772;28;20566;-76
2022/08/28 06:38:11;;;;;;;4.68;2.78;;;;;;;;;;5112541;28;20229;-75
2022/08/28 06:40:40;;;;;;;3.22;2.40;;;;;;;;;;5112867;28;20250;-76
2022/08/28 06:43:07;;;;;;;3.55;2.50;;;;;;;;;;5112751;28;20572;-75
2022/08/28 06:45:35;;;;;;;4.63;2.40;;;;;;;;;;5112647;28;20292;-75
2022/08/28 06:48:02;;;;;;;3.88;2.15;;;;;;;;;;5112972;28;20244;-76
2022/08/28 06:50:29;;;;;;;2.95;2.22;;;;;;;;;;5107141;28;20206;-77
2022/08/28 06:52:58;;;;;;;3.80;2.30;;;;;;;;;;5092421;28;20209;-76
2022/08/28 06:55:26;;;;;;;3.08;2.25;;;;;;;;;;5099614;28;20202;-76
2022/08/28 06:57:53;;;;;;;6.00;2.53;;;;;;;;;;5097584;28;20626;-76
2022/08/28 07:00:20;;;;;;;4.53;2.30;;;;;;;;;;5102025;28;20231;-76
2022/08/28 07:02:48;;;;;;;3.53;2.05;;;;;;;;;;5103630;28;20233;-76
2022/08/28 07:05:15;;;;;;;5.60;2.25;;;;;;;;;;5098814;28;20293;-75
2022/08/28 07:07:43;;;;;;;3.60;2.30;;;;;;;;;;5112281;28;20204;-75
2022/08/28 07:10:11;;;;;;;3.53;1.90;;;;;;;;;;5112437;28;20256;-75
2022/08/28 07:12:39;;;;;;;5.13;2.10;;;;;;;;;;5108910;28;20194;-75
2022/08/28 07:15:06;;;;;;;4.28;2.00;;;;;;;;;;5099929;28;20234;-75
2022/08/28 07:17:34;;;;;;;4.57;2.10;;;;;;;;;;5104321;28;20276;-75
2022/08/28 07:20:02;;;;;;;5.47;2.30;;;;;;;;;;5092632;28;20273;-75
2022/08/28 07:22:30;;;;;;;4.13;2.10;;;;;;;;;;5099836;28;20725;-75
2022/08/28 07:24:57;;;;;;;4.18;2.05;;;;;;;;;;5100019;28;20208;-75
2022/08/28 07:27:25;;;;;;;4.88;2.03;;;;;;;;;;5099809;28;20294;-75
2022/08/28 07:29:53;;;;;;;3.92;2.30;;;;;;;;;;5106777;28;20266;-75
2022/08/28 07:32:21;;;;;;;4.22;1.90;;;;;;;;;;5099109;28;20237;-75
2022/08/28 07:34:49;;;;;;;2.38;2.05;;;;;;;;;;5095429;28;20199;-75
2022/08/28 07:37:16;;;;;;;3.60;1.90;;;;;;;;;;5099560;28;20285;-75
2022/08/28 07:39:43;;;;;;;3.88;1.88;;;;;;;;;;5096787;28;20222;-75
2022/08/28 07:44:47;;;;;;;3.28;2.05;;;;;;;;;;5093672;28;20257;-75
2022/08/28 07:45:00;;;;;;;4.15;2.08;;;;;;;;;;5096352;28;20209;-75
2022/08/28 07:47:30;;;;;;;3.25;1.70;;;;;;;;;;5091811;28;20206;-75
2022/08/28 07:49:59;;;;;;;2.95;1.63;;;;;;;;;;5091097;28;20581;-74
2022/08/28 07:52:26;;;;;;;3.78;1.88;;;;;;;;;;5091528;28;20664;-75
2022/08/28 07:54:54;;;;;;;3.45;1.83;;;;;;;;;;5092123;28;20194;-75
2022/08/28 07:57:21;;;;;;;4.45;1.90;;;;;;;;;;5091351;28;20204;-75
2022/08/28 07:59:48;;;;;;;2.90;1.80;;;;;;;;;;5091306;28;20244;-74
2022/08/28 08:02:17;;;;;;;4.68;2.15;;;;;;;;;;5098496;28;20230;-76
2022/08/28 08:04:44;;;;;;;2.70;1.95;;;;;;;;;;5101841;28;20232;-74
2022/08/28 08:07:13;;;;;;;3.00;1.70;;;;;;;;;;5100913;28;20289;-74
2022/08/28 08:09:41;;;;;;;2.78;2.00;;;;;;;;;;5098541;28;20218;-74
2022/08/28 08:12:09;;;;;;;3.72;1.65;;;;;;;;;;5105875;28;20225;-74
2022/08/28 08:14:36;;;;;;;4.50;1.75;;;;;;;;;;5103989;28;20276;-75
2022/08/28 08:17:04;;;;;;;3.97;1.90;;;;;;;;;;5111952;28;20204;-74
2022/08/28 08:19:33;;;;;;;2.90;1.90;;;;;;;;;;5102670;28;20225;-74
2022/08/28 08:22:01;;;;;;;2.65;2.00;;;;;;;;;;5080635;28;20286;-74
2022/08/28 08:24:29;;;;;;;2.85;1.58;;;;;;;;;;5099859;28;20210;-74
2022/08/28 08:26:58;;;;;;;3.67;1.60;;;;;;;;;;5098081;28;20206;-74
2022/08/28 08:29:26;;;;;;;2.50;1.50;;;;;;;;;;5095716;28;20218;-75
2022/08/28 08:31:56;;;;;;;3.03;1.65;;;;;;;;;;5087628;28;20293;-75
2022/08/28 08:34:24;;;;;;;3.22;1.70;;;;;;;;;;5105203;28;20193;-75
2022/08/28 08:36:53;;;;;;;3.65;1.85;;;;;;;;;;5099728;28;20206;-76
2022/08/28 08:39:20;;;;;;;2.80;1.65;;;;;;;;;;5096453;28;20222;-74
2022/08/28 08:41:49;;;;;;;2.75;1.58;;;;;;;;;;5091276;28;20275;-78
2022/08/28 08:44:22;;;;;;;3.78;1.63;;;;;;;;;;5096016;28;20194;-78
2022/08/28 08:46:54;;;;;;;3.13;1.58;;;;;;;;;;5098739;28;20281;-78
2022/08/28 08:49:24;;;;;;;5.20;1.98;;;;;;;;;;5107845;28;20217;-79
2022/08/28 08:51:55;;;;;;;3.28;1.80;;;;;;;;;;5097527;28;20283;-78
2022/08/28 08:54:23;;;;;;;3.90;1.80;;;;;;;;;;5094690;28;20278;-78
2022/08/28 08:56:53;;;;;;;4.10;1.73;;;;;;;;;;5103914;28;20232;-78
2022/08/28 08:59:24;;;;;;;4.00;1.70;;;;;;;;;;5104939;28;20216;-78
2022/08/28 09:01:57;;;;;;;4.13;1.67;;;;;;;;;;5100140;28;20624;-78
2022/08/28 09:04:28;;;;;;;4.40;1.98;;;;;;;;;;5107053;28;20292;-78
2022/08/28 09:07:00;;;;;;;2.70;1.85;;;;;;;;;;5085907;28;20271;-78
2022/08/28 09:09:28;;;;;;;1.98;1.60;;;;;;;;;;5103797;28;20301;-78
2022/08/28 09:11:56;;;;;;;1.80;1.50;;;;;;;;;;5099102;28;20202;-78
2022/08/28 09:14:28;;;;;;;3.65;1.67;;;;;;;;;;5093702;28;20233;-78
2022/08/28 09:16:56;;;;;;;4.60;1.80;;;;;;;;;;5094321;28;20242;-78
2022/08/28 09:19:23;;;;;;;3.25;1.85;;;;;;;;;;5083009;28;20326;-78
2022/08/28 09:21:51;;;;;;;3.75;1.90;;;;;;;;;;5104322;28;20217;-78
2022/08/28 09:24:22;;;;;;;4.35;2.10;;;;;;;;;;5095212;28;20293;-78
2022/08/28 09:26:58;;;;;;;6.88;2.00;;;;;;;;;;5097368;28;20288;-74
2022/08/28 09:29:27;;;;;;;3.28;1.75;;;;;;;;;;5105050;28;20285;-74
2022/08/28 09:31:55;;;;;;;3.15;1.92;;;;;;;;;;5101514;28;20206;-75
2022/08/28 09:34:28;;;;;;;4.53;1.95;;;;;;;;;;5091962;28;20861;-77
2022/08/28 09:36:57;;;;;;;3.85;2.15;;;;;;;;;;5090595;28;20233;-74
2022/08/28 09:39:27;;;;;;;3.58;2.10;;;;;;;;;;5100417;28;20202;-75
2022/08/28 09:44:53;;;;;;;3.67;2.00;;;;;;;;;;5098686;28;20656;-75
2022/08/28 09:47:51;;;;;;;2.88;1.73;;;;;;;;;;5094801;28;20237;-74
2022/08/28 09:50:25;;;;;;;3.28;1.90;;;;;;;;;;5095765;28;20309;-75
2022/08/28 09:52:54;;;;;;;3.65;2.10;;;;;;;;;;5091159;28;20237;-75
2022/08/28 09:55:25;;;;;;;3.63;2.10;;;;;;;;;;5095979;28;20225;-75
2022/08/28 09:57:54;;;;;;;3.88;2.08;;;;;;;;;;5095982;28;20301;-74
2022/08/28 10:00:21;;;;;;;3.25;2.28;;;;;;;;;;5094982;28;20199;-74
2022/08/28 10:02:51;;;;;;;4.45;2.20;;;;;;;;;;5109591;28;20193;-77
2022/08/28 10:05:23;;;;;;;4.43;2.17;;;;;;;;;;5103757;28;20258;-78
2022/08/28 10:07:55;;;;;;;2.33;1.77;;;;;;;;;;5084986;28;20252;-78
2022/08/28 10:10:28;;;;;;;4.07;2.05;;;;;;;;;;5096319;28;20218;-78
2022/08/28 10:13:03;;;;;;;4.97;1.90;;;;;;;;;;5093018;28;20296;-79
2022/08/28 10:15:33;;;;;;;3.47;1.98;;;;;;;;;;5089574;28;20221;-79
2022/08/28 10:18:07;;;;;;;6.00;2.22;;;;;;;;;;5082282;28;20294;-78
2022/08/28 10:20:46;;;;;;;3.45;2.05;;;;;;;;;;5090204;28;20198;-79
2022/08/28 10:23:17;;;;;;;2.42;1.80;;;;;;;;;;5092082;28;20596;-78
2022/08/28 10:25:48;;;;;;;3.83;1.90;;;;;;;;;;5093334;28;20286;-78
2022/08/28 10:28:23;;;;;;;4.30;1.80;;;;;;;;;;5109613;28;20904;-78
2022/08/28 10:30:53;;;;;;;3.78;1.90;;;;;;;;;;5101402;28;20301;-78
2022/08/28 10:33:26;;;;;;;3.95;1.90;;;;;;;;;;5102258;28;20197;-79
2022/08/28 10:35:56;;;;;;;2.78;1.98;;;;;;;;;;5106681;28;20241;-78
2022/08/28 10:38:28;;;;;;;2.47;1.65;;;;;;;;;;5101176;28;20198;-78
2022/08/28 10:41:00;;;;;;;4.88;2.00;;;;;;;;;;5101964;28;20430;-77
2022/08/28 10:43:30;;;;;;;4.45;1.73;;;;;;;;;;5094299;28;20252;-79
2022/08/28 10:46:00;;;;;;;4.25;2.00;;;;;;;;;;5098075;28;20321;-78
2022/08/28 10:48:29;;;;;;;5.07;2.42;;;;;;;;;;5090036;28;20298;-78
2022/08/28 10:50:59;;;;;;;3.72;1.70;;;;;;;;;;5098427;28;20264;-78
2022/08/28 10:53:29;;;;;;;2.70;1.80;;;;;;;;;;5095592;28;20205;-78
2022/08/28 10:55:58;;;;;;;2.53;1.90;;;;;;;;;;5100391;28;20609;-78
2022/08/28 10:58:27;;;;;;;3.42;1.83;;;;;;;;;;5093800;28;20221;-79
2022/08/28 11:00:56;;;;;;;2.78;1.77;;;;;;;;;;5105650;28;20233;-79
2022/08/28 11:03:24;;;;;;;2.95;1.92;;;;;;;;;;5095230;28;20293;-79
2022/08/28 11:05:53;;;;;;;3.85;2.15;;;;;;;;;;5096326;28;20194;-77
2022/08/28 11:08:25;;;;;;;5.22;2.03;;;;;;;;;;5101374;28;20226;-78
2022/08/28 11:10:53;;;;;;;3.60;1.73;;;;;;;;;;5089380;28;20214;-78
2022/08/28 11:13:41;;;;;;;3.40;1.70;;;;;;;;;;5099570;28;20284;-78
2022/08/28 11:16:12;;;;;;;2.95;2.10;;;;;;;;;;5086902;28;20230;-78
2022/08/28 11:18:56;;;;;;;3.65;1.85;;;;;;;;;;5097725;28;20236;-78
2022/08/28 11:21:26;;;;;;;3.10;1.80;;;;;;;;;;5104232;28;20193;-79
2022/08/28 11:23:57;;;;;;;2.40;1.90;;;;;;;;;;5094690;28;20241;-78
2022/08/28 11:26:29;;;;;;;2.75;1.85;;;;;;;;;;5089582;28;20876;-78
2022/08/28 11:28:57;;;;;;;2.58;1.85;;;;;;;;;;5092752;28;20203;-78
2022/08/28 11:31:36;;;;;;;3.20;1.80;;;;;;;;;;5097744;28;20214;-78
2022/08/28 11:34:04;;;;;;;2.63;1.98;;;;;;;;;;5095667;28;20271;-79
2022/08/28 11:36:49;;;;;;;3.10;1.85;;;;;;;;;;5084762;28;20813;-79
2022/08/28 11:39:20;;;;;;;3.28;1.80;;;;;;;;;;5079447;28;20238;-79
2022/08/28 11:42:06;;;;;;;2.95;1.67;;;;;;;;;;5080954;28;20329;-79
2022/08/28 11:44:42;;;;;;;2.50;1.65;;;;;;;;;;5095444;28;20277;-78
2022/08/28 11:47:43;;;;;;;2.50;1.48;;;;;;;;;;5085364;28;20253;-78
2022/08/28 11:50:17;;;;;;;1.77;1.40;;;;;;;;;;5029803;28;20943;-78
2022/08/28 11:53:17;;;;;;;4.75;1.60;;;;;;;;;;5022532;28;20299;-78
2022/08/28 11:55:55;;;;;;;3.90;1.52;;;;;;;;;;5024094;28;20671;-74
2022/08/28 11:58:27;;;;;;;2.03;1.50;;;;;;;;;;5026895;28;20224;-75
2022/08/28 12:00:58;;;;;;;2.67;1.75;;;;;;;;;;5023443;28;20236;-74
2022/08/28 12:03:27;;;;;;;4.05;1.60;;;;;;;;;;5022134;28;20203;-73
2022/08/28 12:05:55;;;;;;;2.97;1.70;;;;;;;;;;5024737;28;20208;-74
2022/08/28 12:08:41;;;;;;;1.95;1.40;;;;;;;;;;5021455;28;20708;-74
2022/08/28 12:11:08;;;;;;;3.65;1.58;;;;;;;;;;5020262;28;20311;-74
2022/08/28 12:13:49;;;;;;;3.58;1.60;;;;;;;;;;5028739;28;20671;-75
2022/08/28 12:16:18;;;;;;;4.88;1.58;;;;;;;;;;5026699;28;20739;-74
2022/08/28 12:19:02;;;;;;;4.18;2.00;;;;;;;;;;5023354;28;20292;-75
2022/08/28 12:21:30;;;;;;;1.80;1.40;;;;;;;;;;5065304;28;20275;-75
2022/08/28 12:23:59;;;;;;;3.83;1.55;;;;;;;;;;5090341;28;20207;-75
2022/08/28 12:26:28;;;;;;;2.25;1.50;;;;;;;;;;5091636;28;20198;-75
2022/08/28 12:28:57;;;;;;;2.22;1.60;;;;;;;;;;5090070;28;20191;-75
2022/08/28 12:34:30;;;;;;;2.22;1.70;;;;;;;;;;5093102;28;20208;-75
2022/08/28 12:36:58;;;;;;;3.15;1.55;;;;;;;;;;5086875;28;20234;-76
2022/08/28 12:39:25;;;;;;;1.90;1.35;;;;;;;;;;5087406;28;20204;-75
2022/08/28 12:41:52;;;;;;;3.35;1.90;;;;;;;;;;5088984;28;20305;-76
2022/08/28 12:44:23;;;;;;;2.00;1.50;;;;;;;;;;5085615;28;20194;-75
2022/08/28 12:46:51;;;;;;;2.83;1.45;;;;;;;;;;5089114;28;20608;-75
2022/08/28 12:49:30;;;;;;;3.47;1.88;;;;;;;;;;5083777;28;20277;-76
2022/08/28 12:52:11;;;;;;;2.25;1.40;;;;;;;;;;5085885;28;20628;-76
2022/08/28 12:54:38;;;;;;;4.30;1.70;;;;;;;;;;5086431;28;20285;-75
2022/08/28 12:57:07;;;;;;;3.03;1.52;;;;;;;;;;5085613;28;20269;-75
2022/08/28 12:59:36;;;;;;;2.72;1.70;;;;;;;;;;5088826;28;20213;-75
2022/08/28 13:02:05;;;;;;;2.60;1.40;;;;;;;;;;5088725;28;21178;-75
2022/08/28 13:04:35;;;;;;;3.10;1.83;;;;;;;;;;5088466;28;20297;-75
2022/08/28 13:07:06;;;;;;;1.92;1.38;;;;;;;;;;5086194;28;20248;-75
2022/08/28 13:09:35;;;;;;;3.90;1.80;;;;;;;;;;5088993;28;20237;-75
2022/08/28 13:12:02;;;;;;;2.35;1.48;;;;;;;;;;5086337;28;20347;-75
2022/08/28 13:14:40;;;;;;;3.63;1.50;;;;;;;;;;5091684;28;20200;-76
2022/08/28 13:17:08;;;;;;;3.00;1.42;;;;;;;;;;5094125;28;20611;-75
2022/08/28 13:19:37;;;;;;;2.67;1.40;;;;;;;;;;5092668;28;20893;-75
2022/08/28 13:22:07;;;;;;;1.90;1.45;;;;;;;;;;5093407;28;20201;-75
2022/08/28 13:24:39;;;;;;;2.53;1.50;;;;;;;;;;5091225;28;20655;-75
2022/08/28 13:27:09;;;;;;;2.97;1.58;;;;;;;;;;5096260;28;20314;-75
2022/08/28 13:29:36;;;;;;;2.80;1.30;;;;;;;;;;5087933;28;20191;-77
2022/08/28 13:32:04;;;;;;;3.78;1.52;;;;;;;;;;5098737;28;20309;-75
2022/08/28 13:34:33;;;;;;;3.67;1.80;;;;;;;;;;5089705;28;20350;-75
2022/08/28 13:37:03;;;;;;;2.17;1.40;;;;;;;;;;5097702;28;20199;-75
2022/08/28 13:39:31;;;;;;;2.33;1.45;;;;;;;;;;5094053;28;20281;-75
2022/08/28 13:42:00;;;;;;;2.83;1.58;;;;;;;;;;5092310;28;20231;-75
2022/08/28 13:44:33;;;;;;;1.65;1.30;;;;;;;;;;5089720;28;20206;-75
2022/08/28 13:47:01;;;;;;;3.75;1.73;;;;;;;;;;5103725;28;20206;-77
2022/08/28 13:49:29;;;;;;;2.80;1.70;;;;;;;;;;5092360;28;20464;-75
2022/08/28 13:51:57;;;;;;;2.33;1.90;;;;;;;;;;5092932;28;20622;-75
2022/08/28 13:54:25;;;;;;;3.42;1.63;;;;;;;;;;5093349;28;20815;-75
2022/08/28 13:56:57;;;;;;;2.75;1.83;;;;;;;;;;5089086;28;20259;-76
2022/08/28 13:59:28;;;;;;;2.10;1.50;;;;;;;;;;5087418;28;20230;-76
2022/08/28 14:04:41;;;;;;;2.47;1.60;;;;;;;;;;5103431;28;20566;-75
2022/08/28 14:07:09;;;;;;;3.42;1.58;;;;;;;;;;5094496;28;20237;-76
2022/08/28 14:09:37;;;;;;;2.63;1.75;;;;;;;;;;5099215;28;20628;-76
2022/08/28 14:12:05;;;;;;;4.40;1.60;;;;;;;;;;5104131;28;21570;-75
2022/08/28 14:14:32;;;;;;;3.80;1.50;;;;;;;;;;5089395;28;20273;-75
2022/08/28 14:17:00;;;;;;;2.70;1.67;;;;;;;;;;5096552;28;20227;-75
2022/08/28 14:19:28;;;;;;;3.58;1.70;;;;;;;;;;5097367;28;20237;-76
2022/08/28 14:21:58;;;;;;;2.83;1.75;;;;;;;;;;5095536;28;20673;-75
2022/08/28 14:24:26;;;;;;;1.90;1.65;;;;;;;;;;5092148;28;20720;-75
2022/08/28 14:26:55;;;;;;;1.80;1.40;;;;;;;;;;5090600;28;20287;-75
2022/08/28 14:29:22;;;;;;;2.47;1.60;;;;;;;;;;5080922;28;20209;-75
2022/08/28 14:31:49;;;;;;;3.38;1.60;;;;;;;;;;5097900;28;20230;-76
2022/08/28 14:34:19;;;;;;;3.63;1.40;;;;;;;;;;5086471;28;20241;-76
2022/08/28 14:36:49;;;;;;;3.20;2.00;;;;;;;;;;5092193;28;20247;-76
2022/08/28 14:39:17;;;;;;;4.25;1.75;;;;;;;;;;5097722;28;20280;-76
2022/08/28 14:41:45;;;;;;;2.90;1.58;;;;;;;;;;5098881;28;20306;-75
2022/08/28 14:44:14;;;;;;;1.55;1.45;;;;;;;;;;5078272;28;20242;-75
2022/08/28 14:46:43;;;;;;;2.63;1.65;;;;;;;;;;5069234;28;20210;-75
2022/08/28 14:49:12;;;;;;;2.05;1.65;;;;;;;;;;5087708;28;20225;-75
2022/08/28 14:51:41;;;;;;;2.60;1.70;;;;;;;;;;5085726;28;20227;-76
2022/08/28 14:54:09;;;;;;;2.60;1.80;;;;;;;;;;5090570;28;20289;-75
2022/08/28 14:56:37;;;;;;;2.47;1.70;;;;;;;;;;5086525;28;20198;-76
2022/08/28 14:59:05;;;;;;;2.20;2.00;;;;;;;;;;5087087;28;20782;-76
2022/08/28 15:01:36;;;;;;;2.30;1.63;;;;;;;;;;5084328;28;20222;-75
2022/08/28 15:04:07;;;;;;;3.33;1.90;;;;;;;;;;5088981;28;20201;-76
2022/08/28 15:06:35;;;;;;;3.15;1.50;;;;;;;;;;5089086;28;20341;-77
2022/08/28 15:09:05;;;;;;;2.50;1.67;;;;;;;;;;5082571;28;20213;-75